sensor_id;sensor_type;location;lat;lon;timestamp;P1;durP1;ratioP1;P2;durP2;ratioP2
21480;SDS011;10902;48.158;8.634;2024-01-25T00:00:23;9.88;;;2.10;;
21480;SDS011;10902;48.158;8.634;2024-01-25T00:03:09;10.98;;;3.00;;
21480;SDS011;10902;48.158;8.634;2024-01-25T00:05:54;14.68;;;3.85;;
21480;SDS011;10902;48.158;8.634;2024-01-25T00:08:40;13.63;;;3.42;;
21480;SDS011;10902;48.158;8.634;2024-01-25T00:11:26;12.82;;;2.70;;
21480;SDS011;10902;48.158;8.634;2024-01-25T00:14:11;9.50;;;2.22;;
21480;SDS011;10902;48.158;8.634;2024-01-25T00:16:57;12.20;;;2.78;;
21480;SDS011;10902;48.158;8.634;2024-01-25T00:19:42;13.85;;;2.17;;
21480;SDS011;10902;48.158;8.634;2024-01-25T00:22:28;11.27;;;1.98;;
21480;SDS011;10902;48.158;8.634;2024-01-25T00:25:14;6.85;;;2.30;;
21480;SDS011;10902;48.158;8.634;2024-01-25T00:27:59;8.65;;;2.83;;
21480;SDS011;10902;48.158;8.634;2024-01-25T00:30:45;12.70;;;2.53;;
21480;SDS011;10902;48.158;8.634;2024-01-25T00:33:31;11.93;;;2.28;;
21480;SDS011;10902;48.158;8.634;2024-01-25T00:36:16;8.52;;;2.20;;
21480;SDS011;10902;48.158;8.634;2024-01-25T00:39:02;7.35;;;1.83;;
21480;SDS011;10902;48.158;8.634;2024-01-25T00:41:49;10.52;;;1.70;;
21480;SDS011;10902;48.158;8.634;2024-01-25T00:44:36;8.57;;;1.90;;
21480;SDS011;10902;48.158;8.634;2024-01-25T00:47:22;8.70;;;2.15;;
21480;SDS011;10902;48.158;8.634;2024-01-25T00:50:08;8.35;;;1.70;;
21480;SDS011;10902;48.158;8.634;2024-01-25T00:52:54;8.85;;;2.08;;
21480;SDS011;10902;48.158;8.634;2024-01-25T00:55:40;11.07;;;2.15;;
21480;SDS011;10902;48.158;8.634;2024-01-25T00:58:26;9.63;;;1.35;;
21480;SDS011;10902;48.158;8.634;2024-01-25T01:01:12;5.57;;;1.25;;
21480;SDS011;10902;48.158;8.634;2024-01-25T01:03:58;6.40;;;1.30;;
21480;SDS011;10902;48.158;8.634;2024-01-25T01:06:44;5.47;;;1.30;;
21480;SDS011;10902;48.158;8.634;2024-01-25T01:09:30;7.65;;;1.20;;
21480;SDS011;10902;48.158;8.634;2024-01-25T01:12:16;7.10;;;1.42;;
21480;SDS011;10902;48.158;8.634;2024-01-25T01:15:01;7.18;;;1.25;;
21480;SDS011;10902;48.158;8.634;2024-01-25T01:17:47;6.47;;;1.30;;
21480;SDS011;10902;48.158;8.634;2024-01-25T01:20:33;5.45;;;1.27;;
21480;SDS011;10902;48.158;8.634;2024-01-25T01:23:18;6.65;;;1.40;;
21480;SDS011;10902;48.158;8.634;2024-01-25T01:26:04;6.78;;;1.95;;
21480;SDS011;10902;48.158;8.634;2024-01-25T01:28:50;6.40;;;1.02;;
21480;SDS011;10902;48.158;8.634;2024-01-25T01:31:36;4.60;;;1.30;;
21480;SDS011;10902;48.158;8.634;2024-01-25T01:34:21;6.43;;;1.30;;
21480;SDS011;10902;48.158;8.634;2024-01-25T01:37:07;8.63;;;1.70;;
21480;SDS011;10902;48.158;8.634;2024-01-25T01:39:52;6.35;;;1.10;;
21480;SDS011;10902;48.158;8.634;2024-01-25T01:42:40;5.10;;;1.40;;
21480;SDS011;10902;48.158;8.634;2024-01-25T01:45:26;5.78;;;1.48;;
21480;SDS011;10902;48.158;8.634;2024-01-25T01:48:12;8.68;;;1.45;;
21480;SDS011;10902;48.158;8.634;2024-01-25T01:50:58;6.00;;;1.30;;
21480;SDS011;10902;48.158;8.634;2024-01-25T01:53:44;3.95;;;1.10;;
21480;SDS011;10902;48.158;8.634;2024-01-25T01:56:31;5.75;;;1.00;;
21480;SDS011;10902;48.158;8.634;2024-01-25T01:59:17;5.00;;;1.10;;
21480;SDS011;10902;48.158;8.634;2024-01-25T02:02:02;5.35;;;1.20;;
21480;SDS011;10902;48.158;8.634;2024-01-25T02:04:48;4.57;;;0.95;;
21480;SDS011;10902;48.158;8.634;2024-01-25T02:07:34;9.65;;;1.33;;
21480;SDS011;10902;48.158;8.634;2024-01-25T02:10:19;7.20;;;1.20;;
21480;SDS011;10902;48.158;8.634;2024-01-25T02:13:05;10.00;;;1.42;;
21480;SDS011;10902;48.158;8.634;2024-01-25T02:15:51;6.50;;;1.25;;
21480;SDS011;10902;48.158;8.634;2024-01-25T02:18:37;5.53;;;1.13;;
21480;SDS011;10902;48.158;8.634;2024-01-25T02:21:23;11.77;;;2.67;;
21480;SDS011;10902;48.158;8.634;2024-01-25T02:24:09;7.18;;;1.33;;
21480;SDS011;10902;48.158;8.634;2024-01-25T02:26:54;5.63;;;1.40;;
21480;SDS011;10902;48.158;8.634;2024-01-25T02:29:40;6.68;;;1.73;;
21480;SDS011;10902;48.158;8.634;2024-01-25T02:32:26;6.60;;;1.30;;
21480;SDS011;10902;48.158;8.634;2024-01-25T02:35:11;6.15;;;1.35;;
21480;SDS011;10902;48.158;8.634;2024-01-25T02:37:57;5.97;;;1.67;;
21480;SDS011;10902;48.158;8.634;2024-01-25T02:40:42;5.95;;;1.00;;
21480;SDS011;10902;48.158;8.634;2024-01-25T02:43:28;6.53;;;1.20;;
21480;SDS011;10902;48.158;8.634;2024-01-25T02:46:14;8.68;;;2.13;;
21480;SDS011;10902;48.158;8.634;2024-01-25T02:48:59;6.07;;;1.15;;
21480;SDS011;10902;48.158;8.634;2024-01-25T02:51:45;6.38;;;1.38;;
21480;SDS011;10902;48.158;8.634;2024-01-25T02:54:30;6.03;;;1.20;;
21480;SDS011;10902;48.158;8.634;2024-01-25T02:57:21;6.75;;;1.50;;
21480;SDS011;10902;48.158;8.634;2024-01-25T03:00:08;6.25;;;1.13;;
21480;SDS011;10902;48.158;8.634;2024-01-25T03:02:54;6.32;;;1.05;;
21480;SDS011;10902;48.158;8.634;2024-01-25T03:05:40;6.00;;;1.42;;
21480;SDS011;10902;48.158;8.634;2024-01-25T03:08:25;4.93;;;0.98;;
21480;SDS011;10902;48.158;8.634;2024-01-25T03:11:11;5.38;;;0.93;;
21480;SDS011;10902;48.158;8.634;2024-01-25T03:13:56;3.83;;;0.93;;
21480;SDS011;10902;48.158;8.634;2024-01-25T03:16:42;3.83;;;0.90;;
21480;SDS011;10902;48.158;8.634;2024-01-25T03:19:28;4.40;;;1.00;;
21480;SDS011;10902;48.158;8.634;2024-01-25T03:22:14;5.93;;;0.90;;
21480;SDS011;10902;48.158;8.634;2024-01-25T03:25:00;5.82;;;0.93;;
21480;SDS011;10902;48.158;8.634;2024-01-25T03:27:45;3.97;;;0.70;;
21480;SDS011;10902;48.158;8.634;2024-01-25T03:30:31;3.65;;;0.88;;
21480;SDS011;10902;48.158;8.634;2024-01-25T03:33:16;3.83;;;0.95;;
21480;SDS011;10902;48.158;8.634;2024-01-25T03:36:02;7.28;;;1.13;;
21480;SDS011;10902;48.158;8.634;2024-01-25T03:38:48;4.28;;;1.02;;
21480;SDS011;10902;48.158;8.634;2024-01-25T03:41:34;4.88;;;1.15;;
21480;SDS011;10902;48.158;8.634;2024-01-25T03:44:20;5.95;;;1.00;;
21480;SDS011;10902;48.158;8.634;2024-01-25T03:47:05;4.07;;;0.90;;
21480;SDS011;10902;48.158;8.634;2024-01-25T03:49:51;3.83;;;0.73;;
21480;SDS011;10902;48.158;8.634;2024-01-25T03:52:37;5.00;;;0.90;;
21480;SDS011;10902;48.158;8.634;2024-01-25T03:55:23;5.78;;;1.00;;
21480;SDS011;10902;48.158;8.634;2024-01-25T03:58:08;4.45;;;1.05;;
21480;SDS011;10902;48.158;8.634;2024-01-25T04:00:55;6.93;;;1.25;;
21480;SDS011;10902;48.158;8.634;2024-01-25T04:03:40;7.18;;;1.40;;
21480;SDS011;10902;48.158;8.634;2024-01-25T04:06:26;4.50;;;1.17;;
21480;SDS011;10902;48.158;8.634;2024-01-25T04:09:12;7.32;;;1.30;;
21480;SDS011;10902;48.158;8.634;2024-01-25T04:11:58;4.50;;;0.90;;
21480;SDS011;10902;48.158;8.634;2024-01-25T04:14:44;6.72;;;1.02;;
21480;SDS011;10902;48.158;8.634;2024-01-25T04:17:30;5.10;;;1.20;;
21480;SDS011;10902;48.158;8.634;2024-01-25T04:20:15;5.72;;;0.80;;
21480;SDS011;10902;48.158;8.634;2024-01-25T04:23:01;3.42;;;0.90;;
21480;SDS011;10902;48.158;8.634;2024-01-25T04:25:47;4.25;;;1.00;;
21480;SDS011;10902;48.158;8.634;2024-01-25T04:28:34;4.38;;;0.85;;
21480;SDS011;10902;48.158;8.634;2024-01-25T04:31:19;5.45;;;1.42;;
21480;SDS011;10902;48.158;8.634;2024-01-25T04:34:05;5.13;;;1.27;;
21480;SDS011;10902;48.158;8.634;2024-01-25T04:36:50;6.53;;;0.93;;
21480;SDS011;10902;48.158;8.634;2024-01-25T04:39:36;5.45;;;0.80;;
21480;SDS011;10902;48.158;8.634;2024-01-25T04:42:21;6.63;;;0.90;;
21480;SDS011;10902;48.158;8.634;2024-01-25T04:45:07;5.55;;;0.80;;
21480;SDS011;10902;48.158;8.634;2024-01-25T04:47:53;3.63;;;1.02;;
21480;SDS011;10902;48.158;8.634;2024-01-25T04:50:38;3.38;;;0.90;;
21480;SDS011;10902;48.158;8.634;2024-01-25T04:53:24;3.83;;;0.60;;
21480;SDS011;10902;48.158;8.634;2024-01-25T04:56:10;4.50;;;1.00;;
21480;SDS011;10902;48.158;8.634;2024-01-25T04:58:56;3.28;;;0.70;;
21480;SDS011;10902;48.158;8.634;2024-01-25T05:01:41;4.03;;;0.90;;
21480;SDS011;10902;48.158;8.634;2024-01-25T05:04:28;5.10;;;1.00;;
21480;SDS011;10902;48.158;8.634;2024-01-25T05:07:14;5.35;;;1.60;;
21480;SDS011;10902;48.158;8.634;2024-01-25T05:09:59;5.55;;;1.50;;
21480;SDS011;10902;48.158;8.634;2024-01-25T05:12:45;5.53;;;1.10;;
21480;SDS011;10902;48.158;8.634;2024-01-25T05:15:30;5.00;;;1.20;;
21480;SDS011;10902;48.158;8.634;2024-01-25T05:18:16;3.67;;;0.90;;
21480;SDS011;10902;48.158;8.634;2024-01-25T05:21:02;3.03;;;0.80;;
21480;SDS011;10902;48.158;8.634;2024-01-25T05:23:47;3.53;;;0.88;;
21480;SDS011;10902;48.158;8.634;2024-01-25T05:26:33;2.33;;;0.80;;
21480;SDS011;10902;48.158;8.634;2024-01-25T05:29:18;3.53;;;0.93;;
21480;SDS011;10902;48.158;8.634;2024-01-25T05:32:04;5.22;;;0.80;;
21480;SDS011;10902;48.158;8.634;2024-01-25T05:34:50;4.05;;;1.20;;
21480;SDS011;10902;48.158;8.634;2024-01-25T05:37:35;3.08;;;0.68;;
21480;SDS011;10902;48.158;8.634;2024-01-25T05:40:21;4.18;;;0.80;;
21480;SDS011;10902;48.158;8.634;2024-01-25T05:43:07;3.75;;;0.80;;
21480;SDS011;10902;48.158;8.634;2024-01-25T05:45:53;4.03;;;0.80;;
21480;SDS011;10902;48.158;8.634;2024-01-25T05:48:38;4.93;;;0.80;;
21480;SDS011;10902;48.158;8.634;2024-01-25T05:51:24;6.38;;;0.90;;
21480;SDS011;10902;48.158;8.634;2024-01-25T05:54:10;3.42;;;0.90;;
21480;SDS011;10902;48.158;8.634;2024-01-25T05:56:55;3.25;;;0.90;;
21480;SDS011;10902;48.158;8.634;2024-01-25T05:59:41;3.55;;;0.68;;
21480;SDS011;10902;48.158;8.634;2024-01-25T06:02:26;5.07;;;1.40;;
21480;SDS011;10902;48.158;8.634;2024-01-25T06:05:12;3.67;;;0.77;;
21480;SDS011;10902;48.158;8.634;2024-01-25T06:07:58;4.68;;;0.93;;
21480;SDS011;10902;48.158;8.634;2024-01-25T06:10:43;4.07;;;0.95;;
21480;SDS011;10902;48.158;8.634;2024-01-25T06:13:29;4.18;;;0.85;;
21480;SDS011;10902;48.158;8.634;2024-01-25T06:16:16;6.07;;;1.20;;
21480;SDS011;10902;48.158;8.634;2024-01-25T06:19:02;5.90;;;1.10;;
21480;SDS011;10902;48.158;8.634;2024-01-25T06:21:48;3.63;;;0.95;;
21480;SDS011;10902;48.158;8.634;2024-01-25T06:24:35;4.15;;;0.80;;
21480;SDS011;10902;48.158;8.634;2024-01-25T06:27:20;4.65;;;1.02;;
21480;SDS011;10902;48.158;8.634;2024-01-25T06:30:06;3.20;;;0.70;;
21480;SDS011;10902;48.158;8.634;2024-01-25T06:32:52;4.78;;;1.02;;
21480;SDS011;10902;48.158;8.634;2024-01-25T06:35:38;4.18;;;1.10;;
21480;SDS011;10902;48.158;8.634;2024-01-25T06:38:24;5.50;;;1.05;;
21480;SDS011;10902;48.158;8.634;2024-01-25T06:41:09;5.22;;;1.20;;
21480;SDS011;10902;48.158;8.634;2024-01-25T06:43:55;3.05;;;0.98;;
21480;SDS011;10902;48.158;8.634;2024-01-25T06:46:40;3.28;;;1.00;;
21480;SDS011;10902;48.158;8.634;2024-01-25T06:49:26;3.17;;;1.00;;
21480;SDS011;10902;48.158;8.634;2024-01-25T06:52:11;5.03;;;1.10;;
21480;SDS011;10902;48.158;8.634;2024-01-25T06:54:57;5.85;;;1.23;;
21480;SDS011;10902;48.158;8.634;2024-01-25T06:57:42;6.57;;;1.50;;
21480;SDS011;10902;48.158;8.634;2024-01-25T07:00:28;8.15;;;2.30;;
21480;SDS011;10902;48.158;8.634;2024-01-25T07:03:14;7.88;;;3.42;;
21480;SDS011;10902;48.158;8.634;2024-01-25T07:06:00;11.77;;;3.13;;
21480;SDS011;10902;48.158;8.634;2024-01-25T07:08:45;10.57;;;3.58;;
21480;SDS011;10902;48.158;8.634;2024-01-25T07:11:31;10.38;;;2.55;;
21480;SDS011;10902;48.158;8.634;2024-01-25T07:14:17;8.48;;;2.90;;
21480;SDS011;10902;48.158;8.634;2024-01-25T07:17:02;7.65;;;2.90;;
21480;SDS011;10902;48.158;8.634;2024-01-25T07:19:48;9.02;;;2.90;;
21480;SDS011;10902;48.158;8.634;2024-01-25T07:22:34;9.43;;;2.65;;
21480;SDS011;10902;48.158;8.634;2024-01-25T07:25:20;9.52;;;2.20;;
21480;SDS011;10902;48.158;8.634;2024-01-25T07:28:05;8.25;;;2.92;;
21480;SDS011;10902;48.158;8.634;2024-01-25T07:30:51;8.20;;;2.78;;
21480;SDS011;10902;48.158;8.634;2024-01-25T07:33:37;8.30;;;2.92;;
21480;SDS011;10902;48.158;8.634;2024-01-25T07:36:23;6.75;;;2.70;;
21480;SDS011;10902;48.158;8.634;2024-01-25T07:39:08;9.65;;;4.60;;
21480;SDS011;10902;48.158;8.634;2024-01-25T07:41:56;6.82;;;2.63;;
21480;SDS011;10902;48.158;8.634;2024-01-25T07:44:41;8.75;;;3.28;;
21480;SDS011;10902;48.158;8.634;2024-01-25T07:47:27;7.07;;;2.00;;
21480;SDS011;10902;48.158;8.634;2024-01-25T07:50:12;8.57;;;1.90;;
21480;SDS011;10902;48.158;8.634;2024-01-25T07:52:58;5.25;;;1.92;;
21480;SDS011;10902;48.158;8.634;2024-01-25T07:55:46;10.00;;;2.05;;
21480;SDS011;10902;48.158;8.634;2024-01-25T07:58:31;4.30;;;1.30;;
21480;SDS011;10902;48.158;8.634;2024-01-25T08:01:17;6.75;;;1.63;;
21480;SDS011;10902;48.158;8.634;2024-01-25T08:04:04;5.50;;;1.10;;
21480;SDS011;10902;48.158;8.634;2024-01-25T08:06:49;5.38;;;1.13;;
21480;SDS011;10902;48.158;8.634;2024-01-25T08:09:36;4.32;;;0.90;;
21480;SDS011;10902;48.158;8.634;2024-01-25T08:12:22;5.88;;;1.40;;
21480;SDS011;10902;48.158;8.634;2024-01-25T08:15:07;5.40;;;1.25;;
21480;SDS011;10902;48.158;8.634;2024-01-25T08:17:54;8.55;;;2.20;;
21480;SDS011;10902;48.158;8.634;2024-01-25T08:20:40;7.32;;;1.92;;
21480;SDS011;10902;48.158;8.634;2024-01-25T08:23:26;11.10;;;3.03;;
21480;SDS011;10902;48.158;8.634;2024-01-25T08:26:12;8.65;;;3.25;;
21480;SDS011;10902;48.158;8.634;2024-01-25T08:28:58;7.93;;;3.10;;
21480;SDS011;10902;48.158;8.634;2024-01-25T08:31:44;6.85;;;3.10;;
21480;SDS011;10902;48.158;8.634;2024-01-25T08:34:31;6.78;;;2.55;;
21480;SDS011;10902;48.158;8.634;2024-01-25T08:37:16;6.65;;;1.92;;
21480;SDS011;10902;48.158;8.634;2024-01-25T08:40:02;5.68;;;1.60;;
21480;SDS011;10902;48.158;8.634;2024-01-25T08:42:49;7.65;;;1.55;;
21480;SDS011;10902;48.158;8.634;2024-01-25T08:45:34;9.68;;;1.80;;
21480;SDS011;10902;48.158;8.634;2024-01-25T08:48:20;4.15;;;1.27;;
21480;SDS011;10902;48.158;8.634;2024-01-25T08:51:06;8.85;;;2.05;;
21480;SDS011;10902;48.158;8.634;2024-01-25T08:53:52;5.30;;;1.85;;
21480;SDS011;10902;48.158;8.634;2024-01-25T08:56:38;6.88;;;1.80;;
21480;SDS011;10902;48.158;8.634;2024-01-25T08:59:24;8.60;;;1.65;;
21480;SDS011;10902;48.158;8.634;2024-01-25T09:02:09;10.82;;;2.30;;
21480;SDS011;10902;48.158;8.634;2024-01-25T09:04:55;6.20;;;1.98;;
21480;SDS011;10902;48.158;8.634;2024-01-25T09:07:41;7.05;;;1.63;;
21480;SDS011;10902;48.158;8.634;2024-01-25T09:10:27;9.38;;;2.15;;
21480;SDS011;10902;48.158;8.634;2024-01-25T09:13:13;9.48;;;2.40;;
21480;SDS011;10902;48.158;8.634;2024-01-25T09:15:59;11.98;;;2.15;;
21480;SDS011;10902;48.158;8.634;2024-01-25T09:18:44;8.57;;;2.00;;
21480;SDS011;10902;48.158;8.634;2024-01-25T09:21:30;11.18;;;2.40;;
21480;SDS011;10902;48.158;8.634;2024-01-25T09:24:16;12.80;;;2.47;;
21480;SDS011;10902;48.158;8.634;2024-01-25T09:27:01;13.00;;;2.17;;
21480;SDS011;10902;48.158;8.634;2024-01-25T09:29:47;8.50;;;1.67;;
21480;SDS011;10902;48.158;8.634;2024-01-25T09:32:33;7.25;;;1.58;;
21480;SDS011;10902;48.158;8.634;2024-01-25T09:35:19;10.48;;;2.22;;
21480;SDS011;10902;48.158;8.634;2024-01-25T09:38:04;9.88;;;2.50;;
21480;SDS011;10902;48.158;8.634;2024-01-25T09:40:50;7.13;;;1.80;;
21480;SDS011;10902;48.158;8.634;2024-01-25T09:43:36;8.23;;;1.52;;
21480;SDS011;10902;48.158;8.634;2024-01-25T09:46:22;8.00;;;1.45;;
21480;SDS011;10902;48.158;8.634;2024-01-25T09:49:08;6.68;;;1.92;;
21480;SDS011;10902;48.158;8.634;2024-01-25T09:51:54;8.02;;;2.15;;
21480;SDS011;10902;48.158;8.634;2024-01-25T09:54:41;5.05;;;1.38;;
21480;SDS011;10902;48.158;8.634;2024-01-25T09:57:27;5.13;;;1.10;;
21480;SDS011;10902;48.158;8.634;2024-01-25T10:00:14;3.72;;;0.73;;
21480;SDS011;10902;48.158;8.634;2024-01-25T10:03:00;6.47;;;1.60;;
21480;SDS011;10902;48.158;8.634;2024-01-25T10:05:46;4.00;;;1.08;;
21480;SDS011;10902;48.158;8.634;2024-01-25T10:08:31;7.82;;;1.80;;
21480;SDS011;10902;48.158;8.634;2024-01-25T10:11:17;6.57;;;1.25;;
21480;SDS011;10902;48.158;8.634;2024-01-25T10:14:02;5.03;;;1.48;;
21480;SDS011;10902;48.158;8.634;2024-01-25T10:16:49;6.65;;;2.88;;
21480;SDS011;10902;48.158;8.634;2024-01-25T10:19:35;8.25;;;3.83;;
21480;SDS011;10902;48.158;8.634;2024-01-25T10:22:20;10.23;;;3.17;;
21480;SDS011;10902;48.158;8.634;2024-01-25T10:25:13;6.18;;;2.15;;
21480;SDS011;10902;48.158;8.634;2024-01-25T10:27:59;7.50;;;2.78;;
21480;SDS011;10902;48.158;8.634;2024-01-25T10:30:45;7.43;;;2.28;;
21480;SDS011;10902;48.158;8.634;2024-01-25T10:33:32;7.45;;;2.80;;
21480;SDS011;10902;48.158;8.634;2024-01-25T10:36:22;5.43;;;2.00;;
21480;SDS011;10902;48.158;8.634;2024-01-25T10:39:08;5.70;;;1.90;;
21480;SDS011;10902;48.158;8.634;2024-01-25T10:41:54;4.93;;;1.60;;
21480;SDS011;10902;48.158;8.634;2024-01-25T10:44:41;3.38;;;0.95;;
21480;SDS011;10902;48.158;8.634;2024-01-25T10:47:27;1.75;;;0.50;;
21480;SDS011;10902;48.158;8.634;2024-01-25T10:50:15;1.70;;;0.50;;
21480;SDS011;10902;48.158;8.634;2024-01-25T10:53:01;3.03;;;1.10;;
21480;SDS011;10902;48.158;8.634;2024-01-25T10:55:48;2.25;;;0.70;;
21480;SDS011;10902;48.158;8.634;2024-01-25T10:58:34;1.45;;;0.45;;
21480;SDS011;10902;48.158;8.634;2024-01-25T11:01:22;1.50;;;0.40;;
21480;SDS011;10902;48.158;8.634;2024-01-25T11:04:12;2.28;;;0.70;;
21480;SDS011;10902;48.158;8.634;2024-01-25T11:07:08;1.83;;;0.45;;
21480;SDS011;10902;48.158;8.634;2024-01-25T11:09:54;1.70;;;0.50;;
21480;SDS011;10902;48.158;8.634;2024-01-25T11:12:48;1.75;;;0.50;;
21480;SDS011;10902;48.158;8.634;2024-01-25T11:15:36;2.33;;;0.47;;
21480;SDS011;10902;48.158;8.634;2024-01-25T11:18:24;1.20;;;0.40;;
21480;SDS011;10902;48.158;8.634;2024-01-25T11:21:11;1.73;;;0.52;;
21480;SDS011;10902;48.158;8.634;2024-01-25T11:24:02;1.08;;;0.30;;
21480;SDS011;10902;48.158;8.634;2024-01-25T11:26:48;1.85;;;0.50;;
21480;SDS011;10902;48.158;8.634;2024-01-25T11:29:34;2.42;;;0.50;;
21480;SDS011;10902;48.158;8.634;2024-01-25T11:32:22;0.93;;;0.40;;
21480;SDS011;10902;48.158;8.634;2024-01-25T11:35:07;1.50;;;0.50;;
21480;SDS011;10902;48.158;8.634;2024-01-25T11:37:56;1.50;;;0.40;;
21480;SDS011;10902;48.158;8.634;2024-01-25T11:40:44;1.63;;;0.40;;
21480;SDS011;10902;48.158;8.634;2024-01-25T11:43:29;1.67;;;0.40;;
21480;SDS011;10902;48.158;8.634;2024-01-25T11:46:15;1.70;;;0.40;;
21480;SDS011;10902;48.158;8.634;2024-01-25T11:49:01;1.20;;;0.40;;
21480;SDS011;10902;48.158;8.634;2024-01-25T11:51:47;0.88;;;0.30;;
21480;SDS011;10902;48.158;8.634;2024-01-25T11:54:32;1.30;;;0.43;;
21480;SDS011;10902;48.158;8.634;2024-01-25T11:57:18;1.98;;;0.50;;
21480;SDS011;10902;48.158;8.634;2024-01-25T12:00:04;1.20;;;0.35;;
21480;SDS011;10902;48.158;8.634;2024-01-25T12:02:51;1.70;;;0.45;;
21480;SDS011;10902;48.158;8.634;2024-01-25T12:05:37;0.98;;;0.30;;
21480;SDS011;10902;48.158;8.634;2024-01-25T12:08:24;0.55;;;0.28;;
21480;SDS011;10902;48.158;8.634;2024-01-25T12:11:10;0.73;;;0.30;;
21480;SDS011;10902;48.158;8.634;2024-01-25T12:13:56;1.02;;;0.22;;
21480;SDS011;10902;48.158;8.634;2024-01-25T12:16:43;1.33;;;0.30;;
21480;SDS011;10902;48.158;8.634;2024-01-25T12:19:29;0.85;;;0.20;;
21480;SDS011;10902;48.158;8.634;2024-01-25T12:22:19;0.60;;;0.20;;
21480;SDS011;10902;48.158;8.634;2024-01-25T12:25:06;0.70;;;0.20;;
21480;SDS011;10902;48.158;8.634;2024-01-25T12:27:54;1.05;;;0.20;;
21480;SDS011;10902;48.158;8.634;2024-01-25T12:30:40;0.82;;;0.22;;
21480;SDS011;10902;48.158;8.634;2024-01-25T12:33:25;1.23;;;0.30;;
21480;SDS011;10902;48.158;8.634;2024-01-25T12:36:12;0.70;;;0.20;;
21480;SDS011;10902;48.158;8.634;2024-01-25T12:38:58;0.60;;;0.20;;
21480;SDS011;10902;48.158;8.634;2024-01-25T12:41:43;1.80;;;0.30;;
21480;SDS011;10902;48.158;8.634;2024-01-25T12:44:29;0.40;;;0.20;;
21480;SDS011;10902;48.158;8.634;2024-01-25T12:47:14;0.52;;;0.20;;
21480;SDS011;10902;48.158;8.634;2024-01-25T12:50:00;0.50;;;0.20;;
21480;SDS011;10902;48.158;8.634;2024-01-25T12:52:45;0.80;;;0.10;;
21480;SDS011;10902;48.158;8.634;2024-01-25T12:55:31;1.38;;;0.35;;
21480;SDS011;10902;48.158;8.634;2024-01-25T12:58:18;0.35;;;0.13;;
21480;SDS011;10902;48.158;8.634;2024-01-25T13:01:03;0.28;;;0.10;;
21480;SDS011;10902;48.158;8.634;2024-01-25T13:03:49;0.52;;;0.20;;
21480;SDS011;10902;48.158;8.634;2024-01-25T13:06:34;0.75;;;0.20;;
21480;SDS011;10902;48.158;8.634;2024-01-25T13:09:20;0.98;;;0.20;;
21480;SDS011;10902;48.158;8.634;2024-01-25T13:12:06;0.50;;;0.13;;
21480;SDS011;10902;48.158;8.634;2024-01-25T13:14:52;0.68;;;0.20;;
21480;SDS011;10902;48.158;8.634;2024-01-25T13:17:38;0.63;;;0.10;;
21480;SDS011;10902;48.158;8.634;2024-01-25T13:20:23;1.98;;;0.52;;
21480;SDS011;10902;48.158;8.634;2024-01-25T13:23:09;0.55;;;0.20;;
21480;SDS011;10902;48.158;8.634;2024-01-25T13:25:54;0.30;;;0.10;;
21480;SDS011;10902;48.158;8.634;2024-01-25T13:28:40;0.57;;;0.20;;
21480;SDS011;10902;48.158;8.634;2024-01-25T13:31:25;1.08;;;0.30;;
21480;SDS011;10902;48.158;8.634;2024-01-25T13:34:11;0.55;;;0.20;;
21480;SDS011;10902;48.158;8.634;2024-01-25T13:36:57;1.13;;;0.20;;
21480;SDS011;10902;48.158;8.634;2024-01-25T13:39:42;1.08;;;0.30;;
21480;SDS011;10902;48.158;8.634;2024-01-25T13:42:28;0.65;;;0.20;;
21480;SDS011;10902;48.158;8.634;2024-01-25T13:45:14;1.42;;;0.25;;
21480;SDS011;10902;48.158;8.634;2024-01-25T13:47:59;1.58;;;0.30;;
21480;SDS011;10902;48.158;8.634;2024-01-25T13:50:45;1.10;;;0.30;;
21480;SDS011;10902;48.158;8.634;2024-01-25T13:53:31;1.52;;;0.30;;
21480;SDS011;10902;48.158;8.634;2024-01-25T13:56:16;0.43;;;0.20;;
21480;SDS011;10902;48.158;8.634;2024-01-25T13:59:02;0.60;;;0.10;;
21480;SDS011;10902;48.158;8.634;2024-01-25T14:01:47;1.08;;;0.28;;
21480;SDS011;10902;48.158;8.634;2024-01-25T14:04:34;1.35;;;0.20;;
21480;SDS011;10902;48.158;8.634;2024-01-25T14:07:20;0.43;;;0.20;;
21480;SDS011;10902;48.158;8.634;2024-01-25T14:10:06;0.85;;;0.20;;
21480;SDS011;10902;48.158;8.634;2024-01-25T14:12:51;0.75;;;0.20;;
21480;SDS011;10902;48.158;8.634;2024-01-25T14:15:37;0.75;;;0.30;;
21480;SDS011;10902;48.158;8.634;2024-01-25T14:18:22;0.75;;;0.20;;
21480;SDS011;10902;48.158;8.634;2024-01-25T14:21:08;0.32;;;0.10;;
21480;SDS011;10902;48.158;8.634;2024-01-25T14:23:54;0.52;;;0.17;;
21480;SDS011;10902;48.158;8.634;2024-01-25T14:26:39;0.60;;;0.20;;
21480;SDS011;10902;48.158;8.634;2024-01-25T14:29:25;0.82;;;0.20;;
21480;SDS011;10902;48.158;8.634;2024-01-25T14:32:10;1.10;;;0.20;;
21480;SDS011;10902;48.158;8.634;2024-01-25T14:34:56;0.45;;;0.10;;
21480;SDS011;10902;48.158;8.634;2024-01-25T14:37:41;1.20;;;0.30;;
21480;SDS011;10902;48.158;8.634;2024-01-25T14:40:27;1.00;;;0.30;;
21480;SDS011;10902;48.158;8.634;2024-01-25T14:43:13;0.57;;;0.20;;
21480;SDS011;10902;48.158;8.634;2024-01-25T14:45:58;1.15;;;0.30;;
21480;SDS011;10902;48.158;8.634;2024-01-25T14:48:44;0.82;;;0.20;;
21480;SDS011;10902;48.158;8.634;2024-01-25T14:51:29;0.50;;;0.20;;
21480;SDS011;10902;48.158;8.634;2024-01-25T14:54:15;0.80;;;0.20;;
21480;SDS011;10902;48.158;8.634;2024-01-25T14:57:01;1.13;;;0.30;;
21480;SDS011;10902;48.158;8.634;2024-01-25T14:59:47;1.08;;;0.30;;
21480;SDS011;10902;48.158;8.634;2024-01-25T15:02:32;0.73;;;0.30;;
21480;SDS011;10902;48.158;8.634;2024-01-25T15:05:18;1.05;;;0.28;;
21480;SDS011;10902;48.158;8.634;2024-01-25T15:08:04;1.77;;;0.43;;
21480;SDS011;10902;48.158;8.634;2024-01-25T15:10:49;1.83;;;0.40;;
21480;SDS011;10902;48.158;8.634;2024-01-25T15:13:36;1.05;;;0.30;;
21480;SDS011;10902;48.158;8.634;2024-01-25T15:16:22;1.58;;;0.30;;
21480;SDS011;10902;48.158;8.634;2024-01-25T15:19:07;1.85;;;0.50;;
21480;SDS011;10902;48.158;8.634;2024-01-25T15:21:53;2.00;;;0.40;;
21480;SDS011;10902;48.158;8.634;2024-01-25T15:24:38;1.90;;;0.52;;
21480;SDS011;10902;48.158;8.634;2024-01-25T15:27:24;1.92;;;0.47;;
21480;SDS011;10902;48.158;8.634;2024-01-25T15:30:09;3.10;;;0.50;;
21480;SDS011;10902;48.158;8.634;2024-01-25T15:32:55;1.10;;;0.40;;
21480;SDS011;10902;48.158;8.634;2024-01-25T15:35:41;2.45;;;0.70;;
21480;SDS011;10902;48.158;8.634;2024-01-25T15:38:27;1.20;;;0.35;;
21480;SDS011;10902;48.158;8.634;2024-01-25T15:41:12;2.13;;;0.65;;
21480;SDS011;10902;48.158;8.634;2024-01-25T15:43:58;2.90;;;0.70;;
21480;SDS011;10902;48.158;8.634;2024-01-25T15:46:43;1.60;;;0.60;;
21480;SDS011;10902;48.158;8.634;2024-01-25T15:49:29;2.28;;;0.70;;
21480;SDS011;10902;48.158;8.634;2024-01-25T15:52:15;1.58;;;0.50;;
21480;SDS011;10902;48.158;8.634;2024-01-25T15:55:00;1.77;;;0.50;;
21480;SDS011;10902;48.158;8.634;2024-01-25T15:57:46;2.38;;;0.45;;
21480;SDS011;10902;48.158;8.634;2024-01-25T16:00:32;2.83;;;0.80;;
21480;SDS011;10902;48.158;8.634;2024-01-25T16:03:17;3.40;;;0.77;;
21480;SDS011;10902;48.158;8.634;2024-01-25T16:06:03;4.03;;;1.23;;
21480;SDS011;10902;48.158;8.634;2024-01-25T16:08:48;2.85;;;0.90;;
21480;SDS011;10902;48.158;8.634;2024-01-25T16:11:34;2.50;;;0.93;;
21480;SDS011;10902;48.158;8.634;2024-01-25T16:14:20;4.57;;;1.80;;
21480;SDS011;10902;48.158;8.634;2024-01-25T16:17:05;4.93;;;1.60;;
21480;SDS011;10902;48.158;8.634;2024-01-25T16:19:53;4.20;;;1.90;;
21480;SDS011;10902;48.158;8.634;2024-01-25T16:22:39;2.72;;;0.95;;
21480;SDS011;10902;48.158;8.634;2024-01-25T16:25:24;4.45;;;2.17;;
21480;SDS011;10902;48.158;8.634;2024-01-25T16:28:10;6.85;;;1.92;;
21480;SDS011;10902;48.158;8.634;2024-01-25T16:30:55;3.28;;;1.48;;
21480;SDS011;10902;48.158;8.634;2024-01-25T16:33:41;7.53;;;3.95;;
21480;SDS011;10902;48.158;8.634;2024-01-25T16:36:27;7.88;;;5.30;;
21480;SDS011;10902;48.158;8.634;2024-01-25T16:39:13;8.43;;;5.55;;